Time;durP1;ratioP1;P1;durP2;ratioP2;P2;SDS_P1;SDS_P2;PMS_P1;PMS_P2;Temp;Humidity;BMP_temperature;BMP_pressure;BME280_temperature;BME280_humidity;BME280_pressure;Samples;Min_cycle;Max_cycle;Signal;HPM_P1;HPM_P2
2022/03/20 00:00:55;;;;;;;3.20;0.80;;;;;12.00;103303.00;;;;4989099;28;20232;-76
2022/03/20 00:03:24;;;;;;;1.25;0.77;;;;;12.00;103293.00;;;;4989426;28;20699;-76
2022/03/20 00:05:53;;;;;;;1.48;0.88;;;;;12.00;103294.00;;;;4987804;28;20214;-76
2022/03/20 00:08:20;;;;;;;1.88;1.20;;;;;12.00;103282.00;;;;4995043;28;20201;-76
2022/03/20 00:10:49;;;;;;;2.92;1.20;;;;;11.90;103280.00;;;;4996452;28;20695;-76
2022/03/20 00:13:19;;;;;;;2.05;1.25;;;;;11.90;103285.00;;;;4989513;28;20614;-76
2022/03/20 00:15:48;;;;;;;1.42;1.00;;;;;11.80;103280.00;;;;4975024;28;20222;-76
2022/03/20 00:18:16;;;;;;;1.98;1.20;;;;;11.80;103284.00;;;;4988284;28;20244;-76
2022/03/20 00:20:46;;;;;;;3.13;1.30;;;;;11.80;103277.00;;;;4989053;28;20193;-75
2022/03/20 00:23:16;;;;;;;2.05;1.27;;;;;11.80;103281.00;;;;4986374;28;20229;-75
2022/03/20 00:25:45;;;;;;;3.05;1.00;;;;;11.70;103275.00;;;;4999288;28;20613;-76
2022/03/20 00:28:13;;;;;;;2.75;1.48;;;;;11.70;103267.00;;;;4993270;28;20293;-75
2022/03/20 00:30:41;;;;;;;2.28;1.40;;;;;11.70;103264.00;;;;4988579;28;20615;-76
2022/03/20 00:33:08;;;;;;;3.17;1.67;;;;;11.70;103265.00;;;;4988454;28;20197;-76
2022/03/20 00:35:36;;;;;;;2.65;1.48;;;;;11.70;103262.00;;;;4987778;28;20205;-76
2022/03/20 00:38:04;;;;;;;3.28;2.08;;;;;11.60;103258.00;;;;4986102;28;20229;-76
2022/03/20 00:40:32;;;;;;;3.38;2.03;;;;;11.60;103253.00;;;;4988993;28;20193;-75
2022/03/20 00:43:00;;;;;;;2.15;1.65;;;;;11.60;103246.00;;;;4991286;28;20232;-76
2022/03/20 00:45:28;;;;;;;2.28;1.85;;;;;11.60;103245.00;;;;4988001;28;20249;-75
2022/03/20 00:47:55;;;;;;;3.58;2.20;;;;;11.60;103246.00;;;;4986875;28;20260;-76
2022/03/20 00:50:23;;;;;;;3.10;2.22;;;;;11.50;103234.00;;;;4989130;28;20288;-76
2022/03/20 00:52:50;;;;;;;2.67;1.80;;;;;11.50;103233.00;;;;4996623;28;20690;-75
2022/03/20 00:55:18;;;;;;;4.50;2.30;;;;;11.50;103230.00;;;;4988896;28;20268;-76
2022/03/20 00:57:46;;;;;;;4.55;2.30;;;;;11.50;103229.00;;;;4988808;28;20210;-76
2022/03/20 01:00:16;;;;;;;3.92;2.03;;;;;11.50;103229.00;;;;5000784;28;20251;-75
2022/03/20 01:02:45;;;;;;;4.47;2.88;;;;;11.40;103212.00;;;;4999156;28;20221;-76
2022/03/20 01:05:12;;;;;;;6.22;2.80;;;;;11.40;103212.00;;;;4985224;28;20280;-76
2022/03/20 01:07:40;;;;;;;4.05;2.45;;;;;11.40;103216.00;;;;4981895;28;20205;-76
2022/03/20 01:10:08;;;;;;;4.20;2.67;;;;;11.40;103211.00;;;;4987688;28;20584;-76
2022/03/20 01:12:38;;;;;;;5.38;2.60;;;;;11.30;103210.00;;;;4987709;28;20198;-76
2022/03/20 01:15:10;;;;;;;5.10;2.80;;;;;11.30;103208.00;;;;4988196;28;20232;-76
2022/03/20 01:17:37;;;;;;;3.60;2.83;;;;;11.30;103201.00;;;;4993466;28;20288;-76
2022/03/20 01:20:08;;;;;;;3.28;2.38;;;;;11.30;103200.00;;;;4990890;28;21217;-76
2022/03/20 01:22:36;;;;;;;4.28;2.65;;;;;11.30;103205.00;;;;4991196;28;20770;-76
2022/03/20 01:25:05;;;;;;;6.00;3.08;;;;;11.20;103201.00;;;;4992061;28;20198;-76
2022/03/20 01:27:32;;;;;;;4.25;2.88;;;;;11.20;103185.00;;;;4991661;28;20755;-75
2022/03/20 01:29:59;;;;;;;6.43;2.80;;;;;11.20;103181.00;;;;4991112;28;20209;-76
2022/03/20 01:32:29;;;;;;;3.42;2.72;;;;;11.10;103176.00;;;;4991775;28;20727;-76
2022/03/20 01:34:56;;;;;;;8.27;3.38;;;;;11.10;103177.00;;;;4996996;28;20629;-76
2022/03/20 01:37:23;;;;;;;6.00;3.35;;;;;11.10;103173.00;;;;4990079;28;20201;-76
2022/03/20 01:39:52;;;;;;;4.20;3.00;;;;;11.10;103176.00;;;;4991549;28;20249;-76
2022/03/20 01:42:20;;;;;;;5.13;3.63;;;;;11.10;103174.00;;;;4990712;28;20221;-76
2022/03/20 01:44:47;;;;;;;4.18;3.03;;;;;11.10;103162.00;;;;4991051;28;20297;-75
2022/03/20 01:47:15;;;;;;;4.25;2.85;;;;;11.00;103152.00;;;;4991061;28;20700;-76
2022/03/20 01:49:43;;;;;;;4.85;3.58;;;;;11.00;103148.00;;;;4993225;28;20290;-76
2022/03/20 01:52:14;;;;;;;4.95;3.47;;;;;11.00;103141.00;;;;5004256;28;20190;-75
2022/03/20 01:54:44;;;;;;;5.38;3.60;;;;;10.90;103135.00;;;;4983213;28;20224;-75
2022/03/20 01:57:15;;;;;;;5.50;3.40;;;;;10.90;103137.00;;;;5001593;28;20210;-75
2022/03/20 01:59:42;;;;;;;6.28;4.13;;;;;10.90;103132.00;;;;4991945;28;20301;-75
2022/03/20 02:02:10;;;;;;;4.57;3.40;;;;;10.90;103126.00;;;;4989747;28;20209;-75
2022/03/20 02:04:38;;;;;;;5.60;3.67;;;;;10.90;103126.00;;;;4989254;28;20232;-76
2022/03/20 02:07:08;;;;;;;5.10;3.60;;;;;10.80;103127.00;;;;4980016;28;20200;-75
2022/03/20 02:09:37;;;;;;;5.15;3.70;;;;;10.80;103110.00;;;;4993197;28;20214;-76
2022/03/20 02:12:05;;;;;;;4.53;3.67;;;;;10.80;103109.00;;;;4989557;28;20277;-75
2022/03/20 02:14:33;;;;;;;6.00;3.65;;;;;10.80;103107.00;;;;4990442;28;20283;-76
2022/03/20 02:17:01;;;;;;;4.68;3.22;;;;;10.70;103101.00;;;;4988793;28;20201;-76
2022/03/20 02:19:29;;;;;;;5.65;3.58;;;;;10.70;103091.00;;;;4989442;28;20208;-76
2022/03/20 02:21:58;;;;;;;3.20;2.83;;;;;10.70;103097.00;;;;4988978;28;20189;-76
2022/03/20 02:24:31;;;;;;;5.68;3.30;;;;;10.60;103096.00;;;;4996507;28;20321;-76
2022/03/20 02:27:11;;;;;;;4.15;2.95;;;;;10.60;103086.00;;;;5003028;28;20268;-75
2022/03/20 02:29:40;;;;;;;6.25;3.35;;;;;10.60;103083.00;;;;4990447;28;20230;-76
2022/03/20 02:32:09;;;;;;;6.65;3.45;;;;;10.60;103069.00;;;;4989745;28;20277;-75
2022/03/20 02:34:37;;;;;;;4.30;3.30;;;;;10.60;103072.00;;;;4989358;28;20280;-76
2022/03/20 02:37:08;;;;;;;4.18;2.95;;;;;10.50;103057.00;;;;4988690;28;20208;-76
2022/03/20 02:39:36;;;;;;;5.38;3.28;;;;;10.50;103062.00;;;;4990830;28;20210;-76
2022/03/20 02:42:05;;;;;;;5.25;3.10;;;;;10.50;103064.00;;;;5001988;28;20574;-75
2022/03/20 02:44:54;;;;;;;5.47;3.30;;;;;10.40;103057.00;;;;4992436;28;20233;-76
2022/03/20 02:47:25;;;;;;;4.28;3.00;;;;;10.50;103059.00;;;;4990348;28;20305;-75
2022/03/20 02:49:54;;;;;;;4.15;2.97;;;;;10.50;103047.00;;;;4990788;28;20271;-75
2022/03/20 02:52:25;;;;;;;4.30;2.85;;;;;10.40;103049.00;;;;4990005;28;20226;-76
2022/03/20 02:54:52;;;;;;;6.20;3.03;;;;;10.40;103045.00;;;;4991129;28;20574;-75
2022/03/20 02:57:20;;;;;;;4.85;3.00;;;;;10.40;103039.00;;;;4990306;28;20189;-76
2022/03/20 02:59:47;;;;;;;5.25;2.70;;;;;10.40;103043.00;;;;4991673;28;20202;-75
2022/03/20 03:02:14;;;;;;;3.65;2.63;;;;;10.40;103038.00;;;;4989679;28;20206;-75
2022/03/20 03:04:42;;;;;;;4.25;2.53;;;;;10.40;103033.00;;;;4973096;28;20225;-76
2022/03/20 03:07:10;;;;;;;4.28;3.15;;;;;10.40;103034.00;;;;4990687;28;22284;-75
2022/03/20 03:12:25;;;;;;;4.30;2.65;;;;;10.30;103031.00;;;;4984689;28;20209;-76
2022/03/20 03:17:37;;;;;;;4.40;3.20;;;;;10.30;103006.00;;;;4986032;28;20715;-76
2022/03/20 03:20:05;;;;;;;4.88;3.40;;;;;10.30;103011.00;;;;4986221;28;20202;-76
2022/03/20 03:22:32;;;;;;;5.65;3.40;;;;;10.30;103019.00;;;;4989991;28;20190;-76
2022/03/20 03:25:01;;;;;;;9.07;3.67;;;;;10.20;103009.00;;;;4988359;28;20198;-76
2022/03/20 03:27:30;;;;;;;4.57;2.72;;;;;10.20;103005.00;;;;4989490;28;20201;-76
2022/03/20 03:29:58;;;;;;;3.97;3.15;;;;;10.20;102997.00;;;;4985778;28;20194;-75
2022/03/20 03:32:25;;;;;;;4.28;3.03;;;;;10.20;103004.00;;;;4988386;28;20206;-76
2022/03/20 03:37:38;;;;;;;5.28;2.90;;;;;10.20;102997.00;;;;4984413;28;20197;-76
2022/03/20 03:40:08;;;;;;;5.00;3.10;;;;;10.20;102992.00;;;;4985689;28;20208;-75
2022/03/20 03:42:36;;;;;;;4.28;2.83;;;;;10.20;102989.00;;;;4984885;28;20282;-76
2022/03/20 03:45:04;;;;;;;4.47;3.17;;;;;10.20;102982.00;;;;4984397;28;20325;-75
2022/03/20 03:47:31;;;;;;;3.50;2.75;;;;;10.20;102980.00;;;;4987862;28;20321;-76
2022/03/20 03:49:58;;;;;;;6.05;3.53;;;;;10.20;102970.00;;;;4988916;28;20209;-76
2022/03/20 03:52:25;;;;;;;5.35;3.08;;;;;10.20;102962.00;;;;4988188;28;20201;-76
2022/03/20 03:54:53;;;;;;;6.88;3.67;;;;;10.10;102959.00;;;;4987057;28;20264;-76
2022/03/20 03:57:22;;;;;;;5.95;3.60;;;;;10.10;102962.00;;;;4988331;28;20206;-75
2022/03/20 03:59:50;;;;;;;7.22;3.13;;;;;10.10;102966.00;;;;4987952;28;20200;-76
2022/03/20 04:02:17;;;;;;;4.95;3.38;;;;;10.10;102961.00;;;;4989018;28;20789;-75
2022/03/20 04:04:46;;;;;;;6.28;3.83;;;;;10.10;102962.00;;;;4973815;28;20287;-75
2022/03/20 04:07:16;;;;;;;6.00;3.47;;;;;10.10;102958.00;;;;4999830;28;20644;-76
2022/03/20 04:09:43;;;;;;;4.78;3.40;;;;;10.00;102947.00;;;;4985240;28;20305;-75
2022/03/20 04:12:13;;;;;;;6.07;3.85;;;;;10.10;102957.00;;;;4988513;28;20200;-75
2022/03/20 04:14:42;;;;;;;6.85;3.58;;;;;10.00;102948.00;;;;4986661;28;20237;-75
2022/03/20 04:17:09;;;;;;;6.43;4.30;;;;;10.00;102943.00;;;;4990927;28;20197;-75
2022/03/20 04:19:37;;;;;;;6.72;4.55;;;;;10.00;102937.00;;;;4995269;28;20217;-75
2022/03/20 04:22:05;;;;;;;5.68;4.03;;;;;10.00;102944.00;;;;4988894;28;20205;-76
2022/03/20 04:24:32;;;;;;;6.28;4.00;;;;;9.90;102930.00;;;;4992909;28;20225;-75
2022/03/20 04:27:00;;;;;;;5.72;3.97;;;;;9.90;102936.00;;;;4988559;28;20198;-76
2022/03/20 04:29:28;;;;;;;7.60;4.60;;;;;9.90;102927.00;;;;4987632;28;20202;-76
2022/03/20 04:31:56;;;;;;;6.80;4.03;;;;;9.90;102931.00;;;;4972061;28;20281;-75
2022/03/20 04:34:24;;;;;;;8.15;4.47;;;;;9.90;102920.00;;;;4987941;28;20213;-76
2022/03/20 04:36:52;;;;;;;6.80;4.15;;;;;9.90;102913.00;;;;4988385;28;20216;-76
2022/03/20 04:39:19;;;;;;;6.47;4.45;;;;;9.90;102909.00;;;;4988252;28;20190;-75
2022/03/20 04:41:47;;;;;;;7.65;3.92;;;;;9.90;102908.00;;;;5006978;28;20544;-75
2022/03/20 04:44:14;;;;;;;6.18;4.25;;;;;9.80;102901.00;;;;4990750;28;20312;-75
2022/03/20 04:46:42;;;;;;;8.45;4.75;;;;;9.80;102899.00;;;;4976879;28;20205;-75
2022/03/20 05:00:11;;;;;;;6.78;5.05;;;;;9.80;102862.00;;;;4983277;28;20213;-75
2022/03/20 05:02:39;;;;;;;7.25;4.97;;;;;9.80;102856.00;;;;4973200;28;20669;-75
2022/03/20 05:05:09;;;;;;;5.72;4.45;;;;;9.80;102852.00;;;;4980815;28;20237;-76
2022/03/20 05:07:39;;;;;;;7.25;4.97;;;;;9.80;102849.00;;;;4991999;28;20284;-76
2022/03/20 05:15:37;;;;;;;7.60;5.03;;;;;9.70;102856.00;;;;5008202;28;20235;-76
2022/03/20 05:18:04;;;;;;;9.55;5.13;;;;;9.70;102861.00;;;;4991795;28;20317;-75
2022/03/20 05:20:33;;;;;;;7.43;4.72;;;;;9.70;102854.00;;;;4990776;28;20260;-75
2022/03/20 05:23:00;;;;;;;9.18;5.97;;;;;9.70;102849.00;;;;4994234;28;20212;-75
2022/03/20 05:25:29;;;;;;;10.60;5.70;;;;;9.80;102849.00;;;;5011734;28;20228;-75
2022/03/20 05:27:56;;;;;;;8.80;5.97;;;;;9.80;102844.00;;;;4992039;28;20360;-76
2022/03/20 05:30:24;;;;;;;13.43;6.60;;;;;9.80;102844.00;;;;4987609;28;20209;-75
2022/03/20 05:32:52;;;;;;;9.85;6.05;;;;;9.80;102835.00;;;;4998396;28;20206;-76
2022/03/20 05:35:19;;;;;;;7.72;5.70;;;;;9.90;102834.00;;;;4991120;28;20656;-75
2022/03/20 05:37:48;;;;;;;8.65;5.55;;;;;9.90;102831.00;;;;4991258;28;20209;-76
2022/03/20 05:40:17;;;;;;;7.90;5.50;;;;;9.90;102832.00;;;;4991810;28;20196;-76
2022/03/20 05:42:46;;;;;;;7.75;5.82;;;;;10.00;102828.00;;;;4991435;28;20403;-75
2022/03/20 05:45:14;;;;;;;9.57;5.88;;;;;10.00;102816.00;;;;4991650;28;20221;-75
2022/03/20 05:47:41;;;;;;;9.40;6.15;;;;;10.10;102817.00;;;;4989948;28;20250;-76
2022/03/20 05:50:10;;;;;;;10.80;6.53;;;;;10.10;102812.00;;;;4986839;28;20214;-76
2022/03/20 05:52:38;;;;;;;8.95;6.65;;;;;10.20;102815.00;;;;4988111;28;20205;-74
2022/03/20 05:55:08;;;;;;;10.05;7.00;;;;;10.20;102817.00;;;;4989012;28;20193;-75
2022/03/20 06:00:24;;;;;;;10.85;6.55;;;;;10.30;102811.00;;;;4988157;28;20200;-74
2022/03/20 06:02:52;;;;;;;8.07;5.80;;;;;10.30;102813.00;;;;4989444;28;20201;-76
2022/03/20 06:05:20;;;;;;;8.57;6.25;;;;;10.30;102814.00;;;;4989474;28;20317;-75
2022/03/20 06:07:49;;;;;;;10.05;6.40;;;;;10.30;102816.00;;;;4988255;28;20210;-76
2022/03/20 06:10:19;;;;;;;8.90;6.43;;;;;10.40;102813.00;;;;4988173;28;20318;-77
2022/03/20 06:12:47;;;;;;;11.05;7.80;;;;;10.40;102812.00;;;;4990582;28;20206;-76
2022/03/20 06:15:15;;;;;;;8.90;6.43;;;;;10.40;102816.00;;;;4990007;28;20279;-76
2022/03/20 06:17:44;;;;;;;10.48;7.28;;;;;10.50;102822.00;;;;4989797;28;20703;-76
2022/03/20 06:20:14;;;;;;;11.65;7.03;;;;;10.50;102815.00;;;;4987728;28;20201;-76
2022/03/20 06:22:42;;;;;;;11.57;7.07;;;;;10.60;102815.00;;;;4987014;28;20302;-75
2022/03/20 06:25:15;;;;;;;10.15;7.00;;;;;10.60;102825.00;;;;4985196;28;20713;-76
2022/03/20 06:27:45;;;;;;;10.18;7.43;;;;;10.60;102825.00;;;;4989308;28;20206;-76
2022/03/20 06:30:14;;;;;;;10.80;7.00;;;;;10.70;102824.00;;;;4987485;28;20209;-74
2022/03/20 06:32:42;;;;;;;8.82;6.75;;;;;10.70;102818.00;;;;4986680;28;20201;-74
2022/03/20 06:35:11;;;;;;;12.80;7.60;;;;;10.70;102822.00;;;;4988821;28;20198;-75
2022/03/20 06:37:39;;;;;;;10.63;7.55;;;;;10.80;102834.00;;;;4972722;28;20761;-75
2022/03/20 06:40:08;;;;;;;10.13;6.88;;;;;10.80;102814.00;;;;4989831;28;20201;-75
2022/03/20 06:42:36;;;;;;;9.32;6.43;;;;;10.80;102813.00;;;;4989384;28;20197;-75
2022/03/20 06:45:07;;;;;;;9.90;7.07;;;;;10.90;102809.00;;;;4985808;28;20226;-74
2022/03/20 06:47:34;;;;;;;11.02;7.55;;;;;10.90;102801.00;;;;4991959;28;20198;-76
2022/03/20 06:50:02;;;;;;;9.48;6.43;;;;;10.90;102790.00;;;;4987499;28;20202;-75
2022/03/20 06:52:30;;;;;;;8.65;6.53;;;;;11.00;102785.00;;;;4988558;28;20282;-75
2022/03/20 06:54:58;;;;;;;9.93;6.97;;;;;11.00;102773.00;;;;4987234;28;20672;-74
2022/03/20 06:57:26;;;;;;;8.52;6.40;;;;;11.00;102769.00;;;;4991721;28;20201;-75
2022/03/20 06:59:56;;;;;;;10.15;6.72;;;;;11.10;102772.00;;;;4988257;28;20284;-75
2022/03/20 07:02:24;;;;;;;11.38;7.32;;;;;11.10;102753.00;;;;4988453;28;20699;-75
2022/03/20 07:04:53;;;;;;;10.55;7.18;;;;;11.10;102749.00;;;;4988778;28;20283;-75
2022/03/20 07:07:22;;;;;;;12.05;7.75;;;;;11.10;102751.00;;;;4988896;28;20202;-75
2022/03/20 07:09:50;;;;;;;9.85;6.43;;;;;11.10;102745.00;;;;4994560;28;20200;-75
2022/03/20 07:12:17;;;;;;;9.40;6.88;;;;;11.10;102752.00;;;;5009907;28;20200;-75
2022/03/20 07:14:45;;;;;;;10.90;6.50;;;;;11.20;102748.00;;;;5008595;28;20228;-75
2022/03/20 07:17:14;;;;;;;10.95;7.45;;;;;11.20;102748.00;;;;4988766;28;20202;-76
2022/03/20 07:19:44;;;;;;;10.95;6.97;;;;;11.20;102750.00;;;;4989411;28;20288;-76
2022/03/20 07:22:13;;;;;;;10.27;7.47;;;;;11.20;102752.00;;;;4989877;28;20304;-76
2022/03/20 07:24:42;;;;;;;10.45;7.22;;;;;11.20;102748.00;;;;4989353;28;20228;-76
2022/03/20 07:29:55;;;;;;;9.20;6.88;;;;;11.30;102754.00;;;;4991062;28;20222;-77
2022/03/20 07:32:22;;;;;;;12.00;7.18;;;;;11.30;102767.00;;;;5008994;28;20208;-77
2022/03/20 07:34:51;;;;;;;12.05;8.02;;;;;11.40;102747.00;;;;5009082;28;20193;-77
2022/03/20 07:37:20;;;;;;;9.80;7.28;;;;;11.40;102724.00;;;;5004032;28;20285;-76
2022/03/20 07:39:49;;;;;;;11.43;7.38;;;;;11.50;102724.00;;;;4989406;28;20197;-77
2022/03/20 07:42:18;;;;;;;11.77;8.07;;;;;11.50;102729.00;;;;4989717;28;20201;-78
2022/03/20 07:44:46;;;;;;;10.18;7.32;;;;;11.50;102725.00;;;;4990578;28;20592;-76
2022/03/20 07:47:18;;;;;;;12.07;7.88;;;;;11.50;102731.00;;;;5008875;28;20216;-77
2022/03/20 07:49:46;;;;;;;12.73;7.38;;;;;11.60;102741.00;;;;5010093;28;20207;-76
2022/03/20 07:52:15;;;;;;;12.02;7.90;;;;;11.60;102725.00;;;;5016023;28;20228;-77
2022/03/20 07:54:45;;;;;;;10.20;7.32;;;;;11.60;102717.00;;;;5006381;28;20197;-78
2022/03/20 07:57:12;;;;;;;10.00;7.32;;;;;11.60;102704.00;;;;4992039;28;20197;-78
2022/03/20 07:59:41;;;;;;;10.82;7.97;;;;;11.70;102704.00;;;;4989910;28;20394;-77
2022/03/20 08:02:08;;;;;;;10.57;7.15;;;;;11.80;102705.00;;;;4989652;28;20832;-77
2022/03/20 08:04:36;;;;;;;13.70;8.55;;;;;11.90;102696.00;;;;4990599;28;20573;-78
2022/03/20 08:07:04;;;;;;;10.52;8.02;;;;;11.90;102697.00;;;;4988530;28;20198;-77
2022/03/20 08:09:33;;;;;;;11.00;8.30;;;;;12.00;102688.00;;;;4988662;28;20193;-78
2022/03/20 08:12:01;;;;;;;10.70;7.57;;;;;12.10;102685.00;;;;4989948;28;20202;-76
2022/03/20 08:14:28;;;;;;;12.45;8.55;;;;;12.20;102673.00;;;;4990362;28;20619;-76
2022/03/20 08:16:55;;;;;;;11.25;7.70;;;;;12.20;102670.00;;;;4988904;28;20209;-76
2022/03/20 08:19:24;;;;;;;11.48;8.05;;;;;12.30;102656.00;;;;4988013;28;20205;-76
2022/03/20 08:21:53;;;;;;;11.35;7.88;;;;;12.40;102649.00;;;;4986492;28;20208;-76
2022/03/20 08:24:20;;;;;;;11.60;8.15;;;;;12.50;102665.00;;;;4988852;28;20204;-77
2022/03/20 08:26:49;;;;;;;12.15;8.73;;;;;12.50;102659.00;;;;4989078;28;20194;-76
2022/03/20 08:29:16;;;;;;;12.68;7.90;;;;;12.50;102663.00;;;;4990931;28;20245;-76
2022/03/20 08:31:45;;;;;;;13.20;8.80;;;;;12.60;102680.00;;;;4991234;28;20201;-76
2022/03/20 08:34:14;;;;;;;11.60;8.55;;;;;12.60;102660.00;;;;4993352;28;20672;-76
2022/03/20 08:36:42;;;;;;;13.23;8.25;;;;;12.60;102658.00;;;;4992972;28;20201;-76
2022/03/20 08:39:09;;;;;;;13.50;9.18;;;;;12.70;102658.00;;;;5003291;28;20201;-76
2022/03/20 08:41:36;;;;;;;13.00;8.98;;;;;12.70;102663.00;;;;4991963;28;20688;-76
2022/03/20 08:44:08;;;;;;;11.90;8.88;;;;;12.70;102657.00;;;;4993193;28;20576;-76
2022/03/20 08:46:36;;;;;;;13.52;9.05;;;;;12.80;102632.00;;;;4997001;28;20280;-76
2022/03/20 08:49:05;;;;;;;13.55;8.88;;;;;12.80;102627.00;;;;4993964;28;20200;-76
2022/03/20 08:51:34;;;;;;;12.60;8.75;;;;;12.90;102625.00;;;;4988082;28;20189;-76
2022/03/20 08:54:01;;;;;;;12.77;8.23;;;;;12.90;102606.00;;;;4993333;28;20236;-76
2022/03/20 08:56:29;;;;;;;12.65;8.68;;;;;13.00;102605.00;;;;4995744;28;20668;-75
2022/03/20 08:58:57;;;;;;;11.60;8.32;;;;;13.10;102593.00;;;;4991309;28;20245;-75
2022/03/20 09:01:25;;;;;;;17.48;9.80;;;;;13.10;102606.00;;;;4992258;28;20193;-76
2022/03/20 09:03:54;;;;;;;13.48;8.82;;;;;13.10;102614.00;;;;4994886;28;20209;-76
2022/03/20 09:06:22;;;;;;;11.82;8.93;;;;;13.20;102606.00;;;;4999033;28;20253;-77
2022/03/20 09:08:50;;;;;;;12.65;7.82;;;;;13.20;102629.00;;;;4994581;28;20244;-77
2022/03/20 09:11:18;;;;;;;13.38;9.00;;;;;13.20;102622.00;;;;4988564;28;20202;-76
2022/03/20 09:13:46;;;;;;;14.15;9.52;;;;;13.20;102616.00;;;;4993133;28;20205;-75
2022/03/20 09:19:03;;;;;;;12.82;9.10;;;;;13.20;102620.00;;;;4992268;28;20224;-76
2022/03/20 09:21:32;;;;;;;11.88;8.07;;;;;13.30;102627.00;;;;5000515;28;20201;-76
2022/03/20 09:24:00;;;;;;;13.38;8.48;;;;;13.30;102629.00;;;;4998173;28;20198;-76
2022/03/20 09:26:27;;;;;;;14.45;9.52;;;;;13.30;102634.00;;;;4989691;28;20225;-75
2022/03/20 09:28:55;;;;;;;12.90;8.32;;;;;13.30;102628.00;;;;4990929;28;20651;-76
2022/03/20 09:31:22;;;;;;;13.63;9.43;;;;;13.40;102629.00;;;;4992774;28;20377;-76
2022/03/20 09:33:51;;;;;;;13.13;8.80;;;;;13.40;102629.00;;;;4997943;28;20210;-75
2022/03/20 09:36:19;;;;;;;12.60;7.78;;;;;13.40;102632.00;;;;4991371;28;20193;-75
2022/03/20 09:38:46;;;;;;;13.98;9.15;;;;;13.40;102624.00;;;;5003721;28;20193;-75
2022/03/20 09:41:14;;;;;;;10.77;7.85;;;;;13.40;102628.00;;;;4990565;28;20202;-76
2022/03/20 09:43:43;;;;;;;12.95;9.20;;;;;13.40;102618.00;;;;4993016;28;20213;-76
2022/03/20 09:46:10;;;;;;;12.02;8.88;;;;;13.50;102631.00;;;;4995334;28;20217;-77
2022/03/20 09:48:38;;;;;;;13.65;9.35;;;;;13.60;102633.00;;;;4992985;28;20668;-77
2022/03/20 09:51:06;;;;;;;13.48;9.80;;;;;13.60;102634.00;;;;4991307;28;20222;-77
2022/03/20 09:53:35;;;;;;;13.88;9.00;;;;;13.70;102632.00;;;;4991802;28;20213;-77
2022/03/20 09:56:05;;;;;;;12.68;9.43;;;;;13.70;102621.00;;;;4996404;28;20193;-77
2022/03/20 09:58:33;;;;;;;13.02;9.52;;;;;13.80;102617.00;;;;4984670;28;20281;-77
2022/03/20 10:01:01;;;;;;;14.27;9.38;;;;;13.80;102606.00;;;;4989806;28;20197;-76
2022/03/20 10:03:28;;;;;;;12.48;9.15;;;;;13.90;102597.00;;;;5007555;28;20205;-77
2022/03/20 10:06:07;;;;;;;12.52;9.23;;;;;13.90;102596.00;;;;4995641;28;20237;-76
2022/03/20 10:08:36;;;;;;;12.93;8.98;;;;;14.10;102592.00;;;;4996065;28;20244;-78
2022/03/20 10:11:14;;;;;;;12.45;9.02;;;;;14.20;102579.00;;;;4987066;28;20190;-77
2022/03/20 10:13:45;;;;;;;12.63;8.73;;;;;14.40;102562.00;;;;4991014;28;20202;-76
2022/03/20 10:16:19;;;;;;;12.82;9.23;;;;;14.50;102551.00;;;;4988664;28;20721;-77
2022/03/20 10:18:46;;;;;;;12.90;9.13;;;;;14.60;102542.00;;;;4990829;28;20201;-76
2022/03/20 10:21:19;;;;;;;12.55;9.15;;;;;14.60;102533.00;;;;4990108;28;20726;-77
2022/03/20 10:23:49;;;;;;;16.40;9.95;;;;;14.70;102537.00;;;;4990630;28;20288;-76
2022/03/20 10:26:17;;;;;;;12.63;9.93;;;;;14.80;102540.00;;;;4989310;28;20284;-77
2022/03/20 10:28:47;;;;;;;13.55;9.38;;;;;14.90;102537.00;;;;4988718;28;20194;-78
2022/03/20 10:31:18;;;;;;;14.75;10.93;;;;;14.90;102549.00;;;;4980854;28;20194;-78
2022/03/20 10:33:59;;;;;;;13.15;9.20;;;;;15.00;102566.00;;;;4995484;28;20194;-77
2022/03/20 10:36:26;;;;;;;11.18;8.40;;;;;15.00;102574.00;;;;4977926;28;20202;-78
2022/03/20 10:38:56;;;;;;;13.57;9.20;;;;;15.10;102572.00;;;;5002574;28;20202;-79
2022/03/20 10:41:26;;;;;;;12.88;9.40;;;;;15.10;102584.00;;;;4989565;28;20358;-78
2022/03/20 10:43:54;;;;;;;13.57;9.73;;;;;15.10;102582.00;;;;4996464;28;20208;-78
2022/03/20 10:46:24;;;;;;;14.82;10.65;;;;;15.10;102570.00;;;;4984681;28;20218;-78
2022/03/20 10:48:53;;;;;;;12.50;9.00;;;;;15.10;102577.00;;;;4991476;28;20214;-77
2022/03/20 10:51:37;;;;;;;14.77;10.70;;;;;15.00;102584.00;;;;4992904;28;20218;-76
2022/03/20 10:54:08;;;;;;;12.43;9.20;;;;;15.10;102597.00;;;;4997929;28;20281;-77
2022/03/20 10:56:37;;;;;;;15.63;10.63;;;;;15.10;102595.00;;;;4996764;28;20199;-76
2022/03/20 10:59:15;;;;;;;17.42;10.98;;;;;15.00;102580.00;;;;4990331;28;20193;-77
2022/03/20 11:01:44;;;;;;;14.25;10.45;;;;;15.00;102579.00;;;;4994351;28;20200;-76
2022/03/20 11:04:13;;;;;;;15.40;10.32;;;;;15.00;102587.00;;;;4992547;28;20197;-76
2022/03/20 11:06:43;;;;;;;14.90;10.10;;;;;14.90;102589.00;;;;4991628;28;20774;-77
2022/03/20 11:09:12;;;;;;;15.13;10.80;;;;;14.90;102587.00;;;;4991882;28;20229;-77
2022/03/20 11:11:42;;;;;;;14.25;10.18;;;;;14.90;102590.00;;;;4985832;28;20217;-77
2022/03/20 11:14:10;;;;;;;17.75;11.82;;;;;14.80;102573.00;;;;4998288;28;20585;-77
2022/03/20 11:16:39;;;;;;;16.42;10.48;;;;;14.80;102581.00;;;;4997979;28;20194;-75
2022/03/20 11:19:11;;;;;;;14.77;11.45;;;;;14.80;102587.00;;;;4995363;28;21127;-76
2022/03/20 11:21:41;;;;;;;16.38;11.32;;;;;14.80;102576.00;;;;4994553;28;20242;-75
2022/03/20 11:24:09;;;;;;;15.60;11.32;;;;;14.70;102567.00;;;;4992784;28;20194;-75
2022/03/20 11:26:40;;;;;;;16.30;11.50;;;;;14.70;102559.00;;;;4985072;28;21068;-75
2022/03/20 11:29:09;;;;;;;15.20;11.10;;;;;14.70;102568.00;;;;4986817;28;20190;-75
2022/03/20 11:31:38;;;;;;;16.52;11.95;;;;;14.70;102574.00;;;;4988715;28;20204;-75
2022/03/20 11:34:07;;;;;;;16.58;11.52;;;;;14.70;102558.00;;;;4987850;28;20198;-76
2022/03/20 11:36:54;;;;;;;14.70;10.45;;;;;14.70;102550.00;;;;4987274;28;20217;-75
2022/03/20 11:39:22;;;;;;;17.55;11.23;;;;;14.80;102550.00;;;;4986738;28;20201;-74
2022/03/20 11:42:23;;;;;;;16.75;11.18;;;;;14.70;102548.00;;;;4986876;28;20236;-75
2022/03/20 11:45:13;;;;;;;14.70;9.90;;;;;14.80;102559.00;;;;4986055;28;20201;-76
2022/03/20 11:47:41;;;;;;;15.55;10.70;;;;;15.00;102563.00;;;;4982807;28;20225;-75
2022/03/20 11:50:14;;;;;;;16.77;12.07;;;;;15.10;102554.00;;;;4985446;28;20201;-75
2022/03/20 11:52:49;;;;;;;15.80;12.07;;;;;15.10;102557.00;;;;4987669;28;20340;-75
2022/03/20 11:55:42;;;;;;;14.05;10.00;;;;;15.10;102562.00;;;;4985907;28;20204;-76
2022/03/20 11:58:33;;;;;;;14.77;10.77;;;;;15.20;102564.00;;;;4973082;28;20217;-76
2022/03/20 12:01:02;;;;;;;14.63;10.38;;;;;15.30;102573.00;;;;4986868;28;20206;-78
2022/03/20 12:03:52;;;;;;;13.93;9.85;;;;;15.20;102566.00;;;;4997705;28;20194;-76
2022/03/20 12:06:48;;;;;;;15.68;10.88;;;;;15.20;102564.00;;;;4987355;28;20225;-77
2022/03/20 12:09:38;;;;;;;15.48;10.57;;;;;15.30;102564.00;;;;4987012;28;20202;-76
2022/03/20 12:12:18;;;;;;;13.38;10.82;;;;;15.40;102565.00;;;;4986035;28;20917;-75
2022/03/20 12:14:51;;;;;;;14.55;10.70;;;;;15.40;102559.00;;;;4982806;28;20867;-76
2022/03/20 12:17:19;;;;;;;15.13;11.10;;;;;15.50;102556.00;;;;4984833;28;20186;-75
2022/03/20 12:19:49;;;;;;;16.45;12.05;;;;;15.50;102547.00;;;;4991088;28;20676;-76
2022/03/20 12:22:30;;;;;;;16.63;11.48;;;;;15.50;102540.00;;;;4986375;28;20296;-74
2022/03/20 12:24:58;;;;;;;17.88;11.88;;;;;15.60;102540.00;;;;4984054;28;20194;-75
2022/03/20 12:27:46;;;;;;;17.23;12.52;;;;;15.60;102549.00;;;;4987898;28;20225;-74
2022/03/20 12:30:34;;;;;;;15.65;11.57;;;;;15.60;102553.00;;;;4987572;28;20225;-75
2022/03/20 12:33:04;;;;;;;15.98;11.52;;;;;15.80;102553.00;;;;4987799;28;20608;-75
2022/03/20 12:35:45;;;;;;;17.23;11.73;;;;;15.80;102557.00;;;;4977955;28;20945;-75
2022/03/20 12:38:35;;;;;;;17.98;11.85;;;;;15.80;102551.00;;;;4985147;28;20326;-76
2022/03/20 12:41:10;;;;;;;17.50;11.68;;;;;15.80;102547.00;;;;4982638;28;20280;-76
2022/03/20 12:43:42;;;;;;;17.95;12.43;;;;;15.90;102543.00;;;;4986259;28;20216;-76
2022/03/20 12:46:10;;;;;;;17.60;12.43;;;;;15.90;102540.00;;;;4987159;28;20229;-76
2022/03/20 12:48:49;;;;;;;19.55;13.18;;;;;15.90;102535.00;;;;4988107;28;20197;-76